Flight Track Log - Related Links

Times and Time Zones

All times are in EDT time to prevent confusion due to time zone crossing. See the CTA307 flight status page for this flight to view local times or setup timezone preferences in your user account.

Time Position Orientation Groundspeed Altitude Reporting Facility
EDT Latitude Longitude Course Direction KTS MPH feet Rate Location/Type
Thu 10:56:02 PM 36.2331 -115.1750 100° East 119 137 3,700  Level Los Angeles Center
Thu 10:56:44 PM 36.2286 -115.1444 100° East 125 144 4,100 568 Climbing Los Angeles Center
Thu 10:57:16 PM 36.2278 -115.1253 93° East 123 142 4,400 689 Climbing Los Angeles Center
Thu 10:57:45 PM 36.2233 -115.1008 103° East 128 147 4,800 689 Climbing Los Angeles Center
Thu 10:58:17 PM 36.2211 -115.0822 98° East 127 146 5,100 689 Climbing Los Angeles Center
Thu 10:58:46 PM 36.2164 -115.0581 104° East 130 150 5,500 581 Climbing Los Angeles Center
Thu 10:59:19 PM 36.2136 -115.0400 101° East 126 145 5,700 627 Climbing Los Angeles Center
Thu 10:59:53 PM 36.2086 -115.0125 103° East 129 148 6,200 871 Climbing Los Angeles Center
Thu 11:00:21 PM 36.2044 -114.9878 102° East 129 148 6,600 689 Climbing Los Angeles Center
Thu 11:00:54 PM 36.1989 -114.9678 109° East 130 150 6,900 590 Climbing Los Angeles Center
Thu 11:01:22 PM 36.1931 -114.9450 108° East 131 151 7,200 787 Climbing Los Angeles Center
Thu 11:01:55 PM 36.1808 -114.9258 128° Southeast 126 145 7,700 774 Climbing Los Angeles Center
Thu 11:02:24 PM 36.1742 -114.9081 115° Southeast 128 147 8,000 800 Climbing Los Angeles Center
Thu 11:02:55 PM 36.1642 -114.8886 122° Southeast 127 146 8,500 774 Climbing Los Angeles Center
Thu 11:03:26 PM 36.1558 -114.8708 120° Southeast 127 146 8,800 590 Climbing Los Angeles Center
Thu 11:03:56 PM 36.1378 -114.8575 149° Southeast 134 154 9,100 590 Climbing Los Angeles Center
Thu 11:04:27 PM 36.1267 -114.8436 135° Southeast 128 147 9,400 545 Climbing Los Angeles Center
Thu 11:04:51 PM 36.1119 -114.8289 141° Southeast 137 158 9,600 194 Climbing Los Angeles Center
Thu 11:05:29 PM 36.0961 -114.8108 137° Southeast 138 159 9,600  Level Los Angeles Center
Thu 11:06:31 PM 36.0608 -114.7703 137° Southeast 161 185 9,600  Level Los Angeles Center
Thu 11:07:32 PM 36.0242 -114.7306 139° Southeast 172 198 9,600  Level Los Angeles Center
Thu 11:08:34 PM 35.9800 -114.6833 139° Southeast 173 199 9,600  Level Los Angeles Center
Thu 11:09:36 PM 35.9475 -114.6414 134° Southeast 171 197 9,600  Level Los Angeles Center
Thu 11:10:38 PM 35.9114 -114.6028 139° Southeast 170 196 9,600  Level Los Angeles Center
Thu 11:11:39 PM 35.8756 -114.5642 139° Southeast 170 196 9,600  Level Los Angeles Center
Thu 11:12:41 PM 35.8397 -114.5244 138° Southeast 172 198 9,600  Level Los Angeles Center
Thu 11:13:43 PM 35.8056 -114.4844 136° Southeast 170 196 9,600  Level Los Angeles Center
Thu 11:14:44 PM 35.7719 -114.4447 136° Southeast 168 193 9,600  Level Los Angeles Center
Thu 11:15:46 PM 35.7361 -114.4058 139° Southeast 170 196 9,600  Level Los Angeles Center
Thu 11:16:48 PM 35.6950 -114.3578 136° Southeast 169 194 9,600  Level Los Angeles Center
Thu 11:17:49 PM 35.6597 -114.3172 137° Southeast 172 198 9,600  Level Los Angeles Center
Thu 11:18:51 PM 35.6228 -114.2797 140° Southeast 172 198 9,600  Level Los Angeles Center
Thu 11:20:05 PM 35.5789 -114.2328 139° Southeast 176 203 9,600  Level Los Angeles Center
Thu 11:21:07 PM 35.5414 -114.1922 139° Southeast 179 206 9,600 -49 Level Los Angeles Center
Thu 11:22:08 PM 35.5064 -114.1556 140° Southeast 169 194 9,500  Descending Los Angeles Center
Thu 11:23:10 PM 35.4722 -114.1186 139° Southeast 166 191 9,600 48 Climbing Los Angeles Center
Thu 11:24:12 PM 35.4281 -114.0717 139° Southeast 168 193 9,600  Level Los Angeles Center
Thu 11:25:14 PM 35.3917 -114.0336 140° Southeast 171 197 9,600 49 Level Los Angeles Center
Thu 11:26:15 PM 35.3556 -113.9939 138° Southeast 173 199 9,700 49 Climbing Los Angeles Center
Thu 11:27:17 PM 35.3178 -113.9575 142° Southeast 173 199 9,700  Level Los Angeles Center
Thu 11:28:19 PM 35.2817 -113.9253 144° Southeast 173 199 9,700  Level Los Angeles Center
Thu 11:29:33 PM 35.2456 -113.8856 138° Southeast 174 200 9,700  Level Los Angeles Center
Thu 11:30:35 PM 35.1967 -113.8292 137° Southeast 174 200 9,700 -48 Level Los Angeles Center
Thu 11:31:37 PM 35.1600 -113.7894 138° Southeast 176 203 9,600 -48 Descending Los Angeles Center
Thu 11:32:39 PM 35.1256 -113.7472 135° Southeast 176 203 9,600 -49 Level Los Angeles Center
Thu 11:33:40 PM 35.0903 -113.7064 137° Southeast 176 203 9,500 -49 Descending Los Angeles Center
Thu 11:34:42 PM 35.0517 -113.6664 140° Southeast 180 207 9,500  Level Los Angeles Center
Thu 11:35:44 PM 35.0089 -113.6169 137° Southeast 179 206 9,500 48 Level Los Angeles Center
Thu 11:36:46 PM 34.9719 -113.5769 138° Southeast 179 206 9,600 48 Climbing Los Angeles Center
Thu 11:37:48 PM 34.9356 -113.5353 137° Southeast 181 208 9,600  Level Los Angeles Center
Thu 11:38:50 PM 34.8994 -113.4933 136° Southeast 181 208 9,600 -98 Level Los Angeles Center
Thu 11:39:51 PM 34.8628 -113.4506 136° Southeast 182 209 9,400  Descending Los Angeles Center
Thu 11:40:22 PM 34.8386 -113.4269 141° Southeast 184 212 9,600 129 Climbing Albuquerque Center
Thu 11:41:24 PM 34.8006 -113.3864 139° Southeast 184 212 9,600  Level Albuquerque Center
Thu 11:42:25 PM 34.7644 -113.3461 137° Southeast 181 208 9,600  Level Albuquerque Center
Thu 11:43:26 PM 34.7269 -113.3039 137° Southeast 181 208 9,600  Level Albuquerque Center
Thu 11:44:27 PM 34.6875 -113.2644 141° Southeast 183 211 9,600  Level Albuquerque Center
Thu 11:45:29 PM 34.6406 -113.2164 140° Southeast 184 212 9,600  Level Albuquerque Center
Thu 11:46:30 PM 34.6025 -113.1758 139° Southeast 184 212 9,600  Level Albuquerque Center
Thu 11:47:31 PM 34.5653 -113.1339 137° Southeast 184 212 9,600  Level Albuquerque Center
Thu 11:48:32 PM 34.5267 -113.0928 139° Southeast 184 212 9,600  Level Albuquerque Center
Thu 11:49:33 PM 34.4908 -113.0531 138° Southeast 182 209 9,600 -49 Level Albuquerque Center
Thu 11:50:34 PM 34.4547 -113.0139 138° Southeast 178 205 9,500  Descending Albuquerque Center
Thu 11:51:36 PM 34.4156 -112.9733 139° Southeast 175 201 9,600 195 Climbing Albuquerque Center
Thu 11:52:37 PM 34.3806 -112.9308 135° Southeast 173 199 9,900 148 Climbing Albuquerque Center
Thu 11:53:38 PM 34.3458 -112.8925 138° Southeast 172 198 9,900 -49 Level Albuquerque Center
Thu 11:54:39 PM 34.3114 -112.8511 135° Southeast 173 199 9,800 -49 Descending Albuquerque Center
Thu 11:55:40 PM 34.2719 -112.8117 140° Southeast 178 205 9,800 49 Level Albuquerque Center
Thu 11:56:42 PM 34.2344 -112.7700 137° Southeast 181 208 9,900  Climbing Albuquerque Center
Thu 11:57:43 PM 34.1964 -112.7303 139° Southeast 182 209 9,800 -148 Descending Albuquerque Center
Thu 11:58:44 PM 34.1503 -112.6808 138° Southeast 184 212 9,600 -98 Descending Albuquerque Center
Thu 11:59:45 PM 34.1139 -112.6406 137° Southeast 181 208 9,600 49 Level Albuquerque Center
Fri 12:00:46 AM 34.0786 -112.5983 135° Southeast 180 207 9,700 49 Climbing Albuquerque Center
Fri 12:01:47 AM 34.0419 -112.5567 137° Southeast 182 209 9,700  Level Albuquerque Center
Fri 12:02:49 AM 34.0047 -112.5150 137° Southeast 182 209 9,700 -49 Level Albuquerque Center
Fri 12:03:50 AM 33.9672 -112.4742 138° Southeast 182 209 9,600 -49 Descending Albuquerque Center
Fri 12:04:51 AM 33.9294 -112.4339 138° Southeast 182 209 9,600  Level Albuquerque Center
Fri 12:05:52 AM 33.8936 -112.3931 137° Southeast 178 205 9,600 -98 Level Albuquerque Center
Fri 12:06:53 AM 33.8547 -112.3561 142° Southeast 178 205 9,400 -393 Descending Albuquerque Center
Fri 12:07:54 AM 33.8100 -112.3225 148° Southeast 186 214 8,800 -639 Descending Albuquerque Center
Fri 12:08:55 AM 33.7558 -112.2800 147° Southeast 194 223 8,100 -639 Descending Albuquerque Center
Fri 12:09:56 AM 33.7097 -112.2461 149° Southeast 195 224 7,500 -590 Descending Albuquerque Center
Fri 12:10:57 AM 33.6636 -112.2122 149° Southeast 196 226 6,900 -689 Descending Albuquerque Center
Fri 12:11:58 AM 33.6067 -112.2156 183° South 202 232 6,100 -984 Descending Albuquerque Center
Fri 12:12:59 AM 33.5494 -112.2183 182° South 206 237 4,900 -689 Descending Albuquerque Center
Fri 12:14:00 AM 33.4944 -112.2228 184° South 200 230 4,700 -244 Descending Albuquerque Center
Fri 12:15:02 AM 33.4478 -112.2192 176° South 174 200 4,400 -488 Descending Albuquerque Center
Fri 12:16:03 AM 33.4283 -112.1728 117° Southeast 167 192 3,700 -836 Descending Albuquerque Center
Fri 12:17:04 AM 33.4281 -112.1192 90° East 163 188 2,700 -836 Descending Albuquerque Center
Fri 12:18:05 AM 33.4286 -112.0708 89° East 149 171 2,000 -689 Descending Albuquerque Center
Fri 12:19:06 AM 33.4292 -112.0283 89° East 106 122 1,300 -689 Descending Albuquerque Center

Login

Don't have an account? Register now (free) for customized features, flight alerts, and more!